sensor_id;sensor_type;location;lat;lon;timestamp;P1;durP1;ratioP1;P2;durP2;ratioP2
20970;SDS011;10644;48.834;10.088;2023-06-04T00:01:01;7.70;;;3.67;;
20970;SDS011;10644;48.834;10.088;2023-06-04T00:03:27;10.63;;;4.53;;
20970;SDS011;10644;48.834;10.088;2023-06-04T00:05:52;13.73;;;4.67;;
20970;SDS011;10644;48.834;10.088;2023-06-04T00:08:18;8.50;;;3.73;;
20970;SDS011;10644;48.834;10.088;2023-06-04T00:10:43;10.20;;;3.90;;
20970;SDS011;10644;48.834;10.088;2023-06-04T00:13:08;11.97;;;3.73;;
20970;SDS011;10644;48.834;10.088;2023-06-04T00:15:34;10.40;;;4.13;;
20970;SDS011;10644;48.834;10.088;2023-06-04T00:17:59;11.43;;;4.50;;
20970;SDS011;10644;48.834;10.088;2023-06-04T00:20:25;10.57;;;4.47;;
20970;SDS011;10644;48.834;10.088;2023-06-04T00:22:50;13.23;;;5.20;;
20970;SDS011;10644;48.834;10.088;2023-06-04T00:25:15;8.80;;;4.07;;
20970;SDS011;10644;48.834;10.088;2023-06-04T00:27:43;10.03;;;4.03;;
20970;SDS011;10644;48.834;10.088;2023-06-04T00:30:08;11.23;;;4.60;;
20970;SDS011;10644;48.834;10.088;2023-06-04T00:32:34;11.23;;;4.57;;
20970;SDS011;10644;48.834;10.088;2023-06-04T00:34:59;16.60;;;4.60;;
20970;SDS011;10644;48.834;10.088;2023-06-04T00:37:27;10.00;;;4.00;;
20970;SDS011;10644;48.834;10.088;2023-06-04T00:39:53;12.30;;;3.93;;
20970;SDS011;10644;48.834;10.088;2023-06-04T00:42:19;11.27;;;4.50;;
20970;SDS011;10644;48.834;10.088;2023-06-04T00:44:44;10.07;;;5.07;;
20970;SDS011;10644;48.834;10.088;2023-06-04T00:47:11;8.80;;;3.70;;
20970;SDS011;10644;48.834;10.088;2023-06-04T00:49:37;7.70;;;3.70;;
20970;SDS011;10644;48.834;10.088;2023-06-04T00:52:03;9.90;;;4.50;;
20970;SDS011;10644;48.834;10.088;2023-06-04T00:54:29;8.93;;;4.20;;
20970;SDS011;10644;48.834;10.088;2023-06-04T00:56:55;7.70;;;3.87;;
20970;SDS011;10644;48.834;10.088;2023-06-04T00:59:20;11.50;;;4.17;;
20970;SDS011;10644;48.834;10.088;2023-06-04T01:04:36;14.30;;;4.27;;
20970;SDS011;10644;48.834;10.088;2023-06-04T01:07:03;14.13;;;6.00;;
20970;SDS011;10644;48.834;10.088;2023-06-04T01:09:30;8.97;;;3.90;;
20970;SDS011;10644;48.834;10.088;2023-06-04T01:11:56;9.10;;;4.10;;
20970;SDS011;10644;48.834;10.088;2023-06-04T01:14:26;11.67;;;4.13;;
20970;SDS011;10644;48.834;10.088;2023-06-04T01:25:20;14.23;;;3.70;;
20970;SDS011;10644;48.834;10.088;2023-06-04T01:27:51;12.57;;;4.70;;
20970;SDS011;10644;48.834;10.088;2023-06-04T01:30:25;11.53;;;4.70;;
20970;SDS011;10644;48.834;10.088;2023-06-04T01:32:55;11.10;;;4.27;;
20970;SDS011;10644;48.834;10.088;2023-06-04T01:35:21;15.50;;;4.33;;
20970;SDS011;10644;48.834;10.088;2023-06-04T01:37:47;9.23;;;4.20;;
20970;SDS011;10644;48.834;10.088;2023-06-04T01:40:13;13.90;;;4.00;;
20970;SDS011;10644;48.834;10.088;2023-06-04T01:42:40;7.40;;;3.87;;
20970;SDS011;10644;48.834;10.088;2023-06-04T01:45:06;7.30;;;3.60;;
20970;SDS011;10644;48.834;10.088;2023-06-04T01:47:32;12.43;;;4.30;;
20970;SDS011;10644;48.834;10.088;2023-06-04T01:49:57;14.33;;;4.53;;
20970;SDS011;10644;48.834;10.088;2023-06-04T01:52:23;15.83;;;4.40;;
20970;SDS011;10644;48.834;10.088;2023-06-04T01:54:48;12.10;;;4.27;;
20970;SDS011;10644;48.834;10.088;2023-06-04T01:57:17;9.80;;;3.90;;
20970;SDS011;10644;48.834;10.088;2023-06-04T01:59:45;10.60;;;4.03;;
20970;SDS011;10644;48.834;10.088;2023-06-04T02:02:11;10.20;;;4.20;;
20970;SDS011;10644;48.834;10.088;2023-06-04T02:04:38;11.07;;;4.33;;
20970;SDS011;10644;48.834;10.088;2023-06-04T02:07:07;12.60;;;3.93;;
20970;SDS011;10644;48.834;10.088;2023-06-04T02:09:33;9.67;;;3.60;;
20970;SDS011;10644;48.834;10.088;2023-06-04T02:12:01;7.87;;;3.57;;
20970;SDS011;10644;48.834;10.088;2023-06-04T02:14:29;7.10;;;3.10;;
20970;SDS011;10644;48.834;10.088;2023-06-04T02:16:57;17.77;;;4.80;;
20970;SDS011;10644;48.834;10.088;2023-06-04T02:19:25;13.00;;;4.30;;
20970;SDS011;10644;48.834;10.088;2023-06-04T02:21:54;10.17;;;4.13;;
20970;SDS011;10644;48.834;10.088;2023-06-04T02:24:20;8.97;;;3.90;;
20970;SDS011;10644;48.834;10.088;2023-06-04T02:26:45;7.80;;;3.90;;
20970;SDS011;10644;48.834;10.088;2023-06-04T02:29:11;11.90;;;3.73;;
20970;SDS011;10644;48.834;10.088;2023-06-04T02:31:37;9.67;;;4.97;;
20970;SDS011;10644;48.834;10.088;2023-06-04T02:34:02;6.87;;;3.50;;
20970;SDS011;10644;48.834;10.088;2023-06-04T02:36:28;18.43;;;3.80;;
20970;SDS011;10644;48.834;10.088;2023-06-04T02:38:54;8.20;;;3.70;;
20970;SDS011;10644;48.834;10.088;2023-06-04T02:41:20;7.50;;;3.97;;
20970;SDS011;10644;48.834;10.088;2023-06-04T02:43:46;10.03;;;3.57;;
20970;SDS011;10644;48.834;10.088;2023-06-04T02:46:14;9.73;;;4.13;;
20970;SDS011;10644;48.834;10.088;2023-06-04T02:48:39;10.60;;;4.30;;
20970;SDS011;10644;48.834;10.088;2023-06-04T02:51:06;8.17;;;4.07;;
20970;SDS011;10644;48.834;10.088;2023-06-04T02:53:35;10.93;;;4.30;;
20970;SDS011;10644;48.834;10.088;2023-06-04T02:56:01;12.40;;;3.80;;
20970;SDS011;10644;48.834;10.088;2023-06-04T02:58:27;10.97;;;3.80;;
20970;SDS011;10644;48.834;10.088;2023-06-04T03:00:53;8.93;;;4.10;;
20970;SDS011;10644;48.834;10.088;2023-06-04T03:03:20;9.07;;;3.63;;
20970;SDS011;10644;48.834;10.088;2023-06-04T03:05:45;9.00;;;3.73;;
20970;SDS011;10644;48.834;10.088;2023-06-04T03:08:11;7.40;;;3.53;;
20970;SDS011;10644;48.834;10.088;2023-06-04T03:10:39;7.80;;;3.53;;
20970;SDS011;10644;48.834;10.088;2023-06-04T03:13:04;8.87;;;3.77;;
20970;SDS011;10644;48.834;10.088;2023-06-04T03:15:29;12.10;;;4.17;;
20970;SDS011;10644;48.834;10.088;2023-06-04T03:17:55;9.20;;;3.97;;
20970;SDS011;10644;48.834;10.088;2023-06-04T03:20:20;9.37;;;3.80;;
20970;SDS011;10644;48.834;10.088;2023-06-04T03:22:49;8.30;;;3.70;;
20970;SDS011;10644;48.834;10.088;2023-06-04T03:25:15;12.13;;;3.90;;
20970;SDS011;10644;48.834;10.088;2023-06-04T03:27:41;19.43;;;6.00;;
20970;SDS011;10644;48.834;10.088;2023-06-04T03:30:07;18.60;;;6.13;;
20970;SDS011;10644;48.834;10.088;2023-06-04T03:32:32;19.97;;;6.83;;
20970;SDS011;10644;48.834;10.088;2023-06-04T03:34:58;27.10;;;7.20;;
20970;SDS011;10644;48.834;10.088;2023-06-04T03:37:23;18.23;;;5.87;;
20970;SDS011;10644;48.834;10.088;2023-06-04T03:39:48;20.60;;;6.50;;
20970;SDS011;10644;48.834;10.088;2023-06-04T03:42:14;16.53;;;5.70;;
20970;SDS011;10644;48.834;10.088;2023-06-04T03:44:39;18.90;;;6.20;;
20970;SDS011;10644;48.834;10.088;2023-06-04T03:47:05;17.30;;;5.70;;
20970;SDS011;10644;48.834;10.088;2023-06-04T03:49:30;20.70;;;6.10;;
20970;SDS011;10644;48.834;10.088;2023-06-04T03:51:55;18.40;;;5.53;;
20970;SDS011;10644;48.834;10.088;2023-06-04T03:54:21;16.20;;;5.07;;
20970;SDS011;10644;48.834;10.088;2023-06-04T03:56:47;15.53;;;5.27;;
20970;SDS011;10644;48.834;10.088;2023-06-04T03:59:15;14.80;;;4.93;;
20970;SDS011;10644;48.834;10.088;2023-06-04T04:01:41;14.80;;;4.90;;
20970;SDS011;10644;48.834;10.088;2023-06-04T04:04:07;17.10;;;6.10;;
20970;SDS011;10644;48.834;10.088;2023-06-04T04:06:32;14.10;;;4.60;;
20970;SDS011;10644;48.834;10.088;2023-06-04T04:08:58;12.47;;;5.10;;
20970;SDS011;10644;48.834;10.088;2023-06-04T04:11:23;18.00;;;6.30;;
20970;SDS011;10644;48.834;10.088;2023-06-04T04:13:48;25.77;;;7.77;;
20970;SDS011;10644;48.834;10.088;2023-06-04T04:16:14;12.53;;;4.97;;
20970;SDS011;10644;48.834;10.088;2023-06-04T04:18:41;15.07;;;5.67;;
20970;SDS011;10644;48.834;10.088;2023-06-04T04:21:08;16.50;;;5.60;;
20970;SDS011;10644;48.834;10.088;2023-06-04T04:23:34;16.83;;;5.60;;
20970;SDS011;10644;48.834;10.088;2023-06-04T04:26:00;25.10;;;6.30;;
20970;SDS011;10644;48.834;10.088;2023-06-04T04:28:27;17.83;;;5.27;;
20970;SDS011;10644;48.834;10.088;2023-06-04T04:30:56;15.93;;;5.33;;
20970;SDS011;10644;48.834;10.088;2023-06-04T04:33:22;17.60;;;4.87;;
20970;SDS011;10644;48.834;10.088;2023-06-04T04:35:49;18.23;;;6.20;;
20970;SDS011;10644;48.834;10.088;2023-06-04T04:38:15;16.57;;;5.10;;
20970;SDS011;10644;48.834;10.088;2023-06-04T04:40:43;21.50;;;6.30;;
20970;SDS011;10644;48.834;10.088;2023-06-04T04:43:09;15.20;;;5.00;;
20970;SDS011;10644;48.834;10.088;2023-06-04T04:45:34;21.27;;;5.67;;
20970;SDS011;10644;48.834;10.088;2023-06-04T04:47:59;18.53;;;5.43;;
20970;SDS011;10644;48.834;10.088;2023-06-04T04:50:25;16.87;;;4.77;;
20970;SDS011;10644;48.834;10.088;2023-06-04T04:52:52;29.43;;;6.63;;
20970;SDS011;10644;48.834;10.088;2023-06-04T04:55:18;21.80;;;6.03;;
20970;SDS011;10644;48.834;10.088;2023-06-04T04:57:46;24.67;;;6.03;;
20970;SDS011;10644;48.834;10.088;2023-06-04T05:00:11;22.80;;;6.03;;
20970;SDS011;10644;48.834;10.088;2023-06-04T05:02:37;17.97;;;5.50;;
20970;SDS011;10644;48.834;10.088;2023-06-04T05:05:03;17.17;;;5.17;;
20970;SDS011;10644;48.834;10.088;2023-06-04T05:07:28;20.33;;;5.90;;
20970;SDS011;10644;48.834;10.088;2023-06-04T05:09:54;16.43;;;5.03;;
20970;SDS011;10644;48.834;10.088;2023-06-04T05:12:19;31.13;;;6.50;;
20970;SDS011;10644;48.834;10.088;2023-06-04T05:14:45;17.97;;;5.20;;
20970;SDS011;10644;48.834;10.088;2023-06-04T05:17:10;15.60;;;4.87;;
20970;SDS011;10644;48.834;10.088;2023-06-04T05:19:38;27.23;;;5.90;;
20970;SDS011;10644;48.834;10.088;2023-06-04T05:22:03;21.43;;;5.70;;
20970;SDS011;10644;48.834;10.088;2023-06-04T05:24:30;25.43;;;6.40;;
20970;SDS011;10644;48.834;10.088;2023-06-04T05:26:56;17.07;;;4.90;;
20970;SDS011;10644;48.834;10.088;2023-06-04T05:29:22;16.57;;;4.90;;
20970;SDS011;10644;48.834;10.088;2023-06-04T05:31:48;26.63;;;6.67;;
20970;SDS011;10644;48.834;10.088;2023-06-04T05:34:14;16.17;;;5.00;;
20970;SDS011;10644;48.834;10.088;2023-06-04T05:36:41;19.53;;;5.27;;
20970;SDS011;10644;48.834;10.088;2023-06-04T05:39:07;16.73;;;5.50;;
20970;SDS011;10644;48.834;10.088;2023-06-04T05:41:34;17.37;;;5.40;;
20970;SDS011;10644;48.834;10.088;2023-06-04T05:43:59;21.23;;;5.63;;
20970;SDS011;10644;48.834;10.088;2023-06-04T05:46:25;17.90;;;5.23;;
20970;SDS011;10644;48.834;10.088;2023-06-04T05:48:52;16.20;;;4.77;;
20970;SDS011;10644;48.834;10.088;2023-06-04T05:51:20;21.23;;;5.37;;
20970;SDS011;10644;48.834;10.088;2023-06-04T05:53:48;19.10;;;5.07;;
20970;SDS011;10644;48.834;10.088;2023-06-04T05:56:13;17.13;;;4.70;;
20970;SDS011;10644;48.834;10.088;2023-06-04T05:58:39;20.23;;;5.27;;
20970;SDS011;10644;48.834;10.088;2023-06-04T06:01:04;17.07;;;5.47;;
20970;SDS011;10644;48.834;10.088;2023-06-04T06:03:29;17.87;;;5.17;;
20970;SDS011;10644;48.834;10.088;2023-06-04T06:05:55;18.30;;;5.23;;
20970;SDS011;10644;48.834;10.088;2023-06-04T06:08:22;18.77;;;5.20;;
20970;SDS011;10644;48.834;10.088;2023-06-04T06:10:47;19.10;;;5.83;;
20970;SDS011;10644;48.834;10.088;2023-06-04T06:13:13;19.83;;;5.30;;
20970;SDS011;10644;48.834;10.088;2023-06-04T06:15:41;21.77;;;6.20;;
20970;SDS011;10644;48.834;10.088;2023-06-04T06:18:07;22.90;;;5.40;;
20970;SDS011;10644;48.834;10.088;2023-06-04T06:20:34;19.63;;;5.40;;
20970;SDS011;10644;48.834;10.088;2023-06-04T06:23:09;18.60;;;5.53;;
20970;SDS011;10644;48.834;10.088;2023-06-04T06:25:34;19.00;;;5.10;;
20970;SDS011;10644;48.834;10.088;2023-06-04T06:28:00;20.03;;;5.13;;
20970;SDS011;10644;48.834;10.088;2023-06-04T06:30:25;21.33;;;4.90;;
20970;SDS011;10644;48.834;10.088;2023-06-04T06:32:50;15.83;;;4.67;;
20970;SDS011;10644;48.834;10.088;2023-06-04T06:35:16;19.93;;;5.67;;
20970;SDS011;10644;48.834;10.088;2023-06-04T06:37:42;16.97;;;4.70;;
20970;SDS011;10644;48.834;10.088;2023-06-04T06:40:08;20.20;;;4.63;;
20970;SDS011;10644;48.834;10.088;2023-06-04T06:42:34;13.10;;;4.40;;
20970;SDS011;10644;48.834;10.088;2023-06-04T06:45:00;21.07;;;4.47;;
20970;SDS011;10644;48.834;10.088;2023-06-04T06:47:26;14.77;;;4.80;;
20970;SDS011;10644;48.834;10.088;2023-06-04T06:49:51;15.60;;;4.80;;
20970;SDS011;10644;48.834;10.088;2023-06-04T06:52:16;13.37;;;4.37;;
20970;SDS011;10644;48.834;10.088;2023-06-04T06:54:44;16.30;;;5.03;;
20970;SDS011;10644;48.834;10.088;2023-06-04T06:57:10;21.77;;;5.83;;
20970;SDS011;10644;48.834;10.088;2023-06-04T06:59:35;10.13;;;3.47;;
20970;SDS011;10644;48.834;10.088;2023-06-04T07:02:01;12.70;;;4.43;;
20970;SDS011;10644;48.834;10.088;2023-06-04T07:04:26;16.00;;;4.70;;
20970;SDS011;10644;48.834;10.088;2023-06-04T07:06:52;17.47;;;4.23;;
20970;SDS011;10644;48.834;10.088;2023-06-04T07:09:17;24.30;;;6.00;;
20970;SDS011;10644;48.834;10.088;2023-06-04T07:11:43;13.60;;;4.27;;
20970;SDS011;10644;48.834;10.088;2023-06-04T07:14:08;9.93;;;4.17;;
20970;SDS011;10644;48.834;10.088;2023-06-04T07:16:33;16.13;;;5.77;;
20970;SDS011;10644;48.834;10.088;2023-06-04T07:19:00;12.30;;;4.70;;
20970;SDS011;10644;48.834;10.088;2023-06-04T07:21:28;19.07;;;4.93;;
20970;SDS011;10644;48.834;10.088;2023-06-04T07:23:54;11.20;;;4.30;;
20970;SDS011;10644;48.834;10.088;2023-06-04T07:26:19;13.10;;;4.60;;
20970;SDS011;10644;48.834;10.088;2023-06-04T07:28:45;15.40;;;5.03;;
20970;SDS011;10644;48.834;10.088;2023-06-04T07:31:10;24.10;;;6.10;;
20970;SDS011;10644;48.834;10.088;2023-06-04T07:33:36;16.80;;;5.63;;
20970;SDS011;10644;48.834;10.088;2023-06-04T07:36:09;28.00;;;8.20;;
20970;SDS011;10644;48.834;10.088;2023-06-04T07:38:36;13.63;;;5.53;;
20970;SDS011;10644;48.834;10.088;2023-06-04T07:41:01;18.20;;;5.70;;
20970;SDS011;10644;48.834;10.088;2023-06-04T07:43:26;11.50;;;4.47;;
20970;SDS011;10644;48.834;10.088;2023-06-04T07:45:52;12.37;;;4.70;;
20970;SDS011;10644;48.834;10.088;2023-06-04T07:48:17;13.13;;;5.43;;
20970;SDS011;10644;48.834;10.088;2023-06-04T07:50:42;10.73;;;4.30;;
20970;SDS011;10644;48.834;10.088;2023-06-04T07:53:08;9.70;;;4.17;;
20970;SDS011;10644;48.834;10.088;2023-06-04T07:55:33;7.40;;;3.97;;
20970;SDS011;10644;48.834;10.088;2023-06-04T07:58:01;9.73;;;4.33;;
20970;SDS011;10644;48.834;10.088;2023-06-04T08:00:27;9.57;;;4.13;;
20970;SDS011;10644;48.834;10.088;2023-06-04T08:02:52;14.80;;;5.30;;
20970;SDS011;10644;48.834;10.088;2023-06-04T08:05:21;18.03;;;4.60;;
20970;SDS011;10644;48.834;10.088;2023-06-04T08:07:46;15.07;;;4.67;;
20970;SDS011;10644;48.834;10.088;2023-06-04T08:10:12;11.80;;;4.30;;
20970;SDS011;10644;48.834;10.088;2023-06-04T08:12:37;12.33;;;4.93;;
20970;SDS011;10644;48.834;10.088;2023-06-04T08:15:03;13.83;;;5.20;;
20970;SDS011;10644;48.834;10.088;2023-06-04T08:17:29;10.47;;;4.50;;
20970;SDS011;10644;48.834;10.088;2023-06-04T08:19:55;9.43;;;3.83;;
20970;SDS011;10644;48.834;10.088;2023-06-04T08:22:21;9.27;;;4.40;;
20970;SDS011;10644;48.834;10.088;2023-06-04T08:24:46;9.40;;;4.03;;
20970;SDS011;10644;48.834;10.088;2023-06-04T08:27:11;17.00;;;4.87;;
20970;SDS011;10644;48.834;10.088;2023-06-04T08:29:37;9.97;;;4.40;;
20970;SDS011;10644;48.834;10.088;2023-06-04T08:32:05;13.83;;;4.43;;
20970;SDS011;10644;48.834;10.088;2023-06-04T08:34:30;12.20;;;4.13;;
20970;SDS011;10644;48.834;10.088;2023-06-04T08:36:56;11.73;;;3.87;;
20970;SDS011;10644;48.834;10.088;2023-06-04T08:39:21;11.80;;;4.63;;
20970;SDS011;10644;48.834;10.088;2023-06-04T08:41:54;9.60;;;4.43;;
20970;SDS011;10644;48.834;10.088;2023-06-04T08:44:21;13.30;;;6.27;;
20970;SDS011;10644;48.834;10.088;2023-06-04T08:46:47;12.27;;;5.73;;
20970;SDS011;10644;48.834;10.088;2023-06-04T08:49:19;8.30;;;4.43;;
20970;SDS011;10644;48.834;10.088;2023-06-04T08:51:47;8.73;;;4.20;;
20970;SDS011;10644;48.834;10.088;2023-06-04T08:54:12;10.10;;;4.40;;
20970;SDS011;10644;48.834;10.088;2023-06-04T08:56:38;10.73;;;4.40;;
20970;SDS011;10644;48.834;10.088;2023-06-04T08:59:04;11.73;;;4.70;;
20970;SDS011;10644;48.834;10.088;2023-06-04T09:01:34;9.17;;;4.20;;
20970;SDS011;10644;48.834;10.088;2023-06-04T09:04:03;8.80;;;3.90;;
20970;SDS011;10644;48.834;10.088;2023-06-04T09:06:31;11.17;;;5.23;;
20970;SDS011;10644;48.834;10.088;2023-06-04T09:09:02;10.07;;;4.60;;
20970;SDS011;10644;48.834;10.088;2023-06-04T09:11:33;13.53;;;5.07;;
20970;SDS011;10644;48.834;10.088;2023-06-04T09:14:01;14.97;;;6.30;;
20970;SDS011;10644;48.834;10.088;2023-06-04T09:19:10;12.80;;;4.80;;
20970;SDS011;10644;48.834;10.088;2023-06-04T09:21:45;9.53;;;4.50;;
20970;SDS011;10644;48.834;10.088;2023-06-04T09:24:21;11.93;;;4.50;;
20970;SDS011;10644;48.834;10.088;2023-06-04T09:26:48;10.13;;;4.40;;
20970;SDS011;10644;48.834;10.088;2023-06-04T09:29:15;7.77;;;4.67;;
20970;SDS011;10644;48.834;10.088;2023-06-04T09:31:43;10.00;;;4.67;;
20970;SDS011;10644;48.834;10.088;2023-06-04T09:34:09;10.50;;;4.30;;
20970;SDS011;10644;48.834;10.088;2023-06-04T09:36:35;8.00;;;4.57;;
20970;SDS011;10644;48.834;10.088;2023-06-04T09:39:02;12.07;;;5.43;;
20970;SDS011;10644;48.834;10.088;2023-06-04T09:41:31;8.47;;;4.47;;
20970;SDS011;10644;48.834;10.088;2023-06-04T09:44:00;6.50;;;4.00;;
20970;SDS011;10644;48.834;10.088;2023-06-04T09:46:27;9.20;;;4.17;;
20970;SDS011;10644;48.834;10.088;2023-06-04T09:48:59;7.87;;;3.80;;
20970;SDS011;10644;48.834;10.088;2023-06-04T09:51:29;9.53;;;4.67;;
20970;SDS011;10644;48.834;10.088;2023-06-04T09:53:59;11.83;;;4.77;;
20970;SDS011;10644;48.834;10.088;2023-06-04T09:56:26;7.80;;;4.57;;
20970;SDS011;10644;48.834;10.088;2023-06-04T09:58:58;11.40;;;4.30;;
20970;SDS011;10644;48.834;10.088;2023-06-04T10:01:28;10.40;;;4.90;;
20970;SDS011;10644;48.834;10.088;2023-06-04T10:03:55;10.13;;;5.47;;
20970;SDS011;10644;48.834;10.088;2023-06-04T10:06:29;10.80;;;5.57;;
20970;SDS011;10644;48.834;10.088;2023-06-04T10:08:58;8.70;;;4.97;;
20970;SDS011;10644;48.834;10.088;2023-06-04T10:11:31;11.93;;;4.40;;
20970;SDS011;10644;48.834;10.088;2023-06-04T10:14:03;9.70;;;4.57;;
20970;SDS011;10644;48.834;10.088;2023-06-04T10:16:36;10.23;;;4.67;;
20970;SDS011;10644;48.834;10.088;2023-06-04T10:19:04;10.70;;;6.07;;
20970;SDS011;10644;48.834;10.088;2023-06-04T10:21:32;11.67;;;5.97;;
20970;SDS011;10644;48.834;10.088;2023-06-04T10:24:00;8.50;;;4.83;;
20970;SDS011;10644;48.834;10.088;2023-06-04T10:26:25;8.60;;;4.80;;
20970;SDS011;10644;48.834;10.088;2023-06-04T10:28:53;11.30;;;5.50;;
20970;SDS011;10644;48.834;10.088;2023-06-04T10:31:22;13.43;;;7.33;;
20970;SDS011;10644;48.834;10.088;2023-06-04T10:33:48;14.73;;;5.50;;
20970;SDS011;10644;48.834;10.088;2023-06-04T10:36:21;15.67;;;6.10;;
20970;SDS011;10644;48.834;10.088;2023-06-04T10:38:48;18.07;;;5.67;;
20970;SDS011;10644;48.834;10.088;2023-06-04T10:41:19;12.33;;;6.00;;
20970;SDS011;10644;48.834;10.088;2023-06-04T10:43:52;18.13;;;7.40;;
20970;SDS011;10644;48.834;10.088;2023-06-04T10:46:25;11.33;;;5.70;;
20970;SDS011;10644;48.834;10.088;2023-06-04T10:49:04;12.70;;;5.70;;
20970;SDS011;10644;48.834;10.088;2023-06-04T10:51:33;12.87;;;5.40;;
20970;SDS011;10644;48.834;10.088;2023-06-04T10:54:02;13.13;;;6.13;;
20970;SDS011;10644;48.834;10.088;2023-06-04T10:56:29;12.90;;;6.77;;
20970;SDS011;10644;48.834;10.088;2023-06-04T10:58:57;12.70;;;5.27;;
20970;SDS011;10644;48.834;10.088;2023-06-04T11:01:26;16.67;;;6.07;;
20970;SDS011;10644;48.834;10.088;2023-06-04T11:03:57;12.00;;;5.77;;
20970;SDS011;10644;48.834;10.088;2023-06-04T11:06:23;13.70;;;5.83;;
20970;SDS011;10644;48.834;10.088;2023-06-04T11:09:00;8.87;;;4.90;;
20970;SDS011;10644;48.834;10.088;2023-06-04T11:11:30;5.80;;;4.13;;
20970;SDS011;10644;48.834;10.088;2023-06-04T11:13:55;10.73;;;5.07;;
20970;SDS011;10644;48.834;10.088;2023-06-04T11:16:38;7.10;;;4.67;;
20970;SDS011;10644;48.834;10.088;2023-06-04T11:19:04;9.70;;;5.20;;
20970;SDS011;10644;48.834;10.088;2023-06-04T11:21:30;8.63;;;4.87;;
20970;SDS011;10644;48.834;10.088;2023-06-04T11:23:57;12.03;;;5.80;;
20970;SDS011;10644;48.834;10.088;2023-06-04T11:26:29;12.27;;;5.53;;
20970;SDS011;10644;48.834;10.088;2023-06-04T11:28:59;11.47;;;5.50;;
20970;SDS011;10644;48.834;10.088;2023-06-04T11:34:10;13.33;;;5.23;;
20970;SDS011;10644;48.834;10.088;2023-06-04T11:36:46;12.07;;;6.77;;
20970;SDS011;10644;48.834;10.088;2023-06-04T11:39:14;8.00;;;4.60;;
20970;SDS011;10644;48.834;10.088;2023-06-04T11:41:42;9.27;;;5.20;;
20970;SDS011;10644;48.834;10.088;2023-06-04T11:44:07;10.93;;;5.40;;
20970;SDS011;10644;48.834;10.088;2023-06-04T11:46:34;5.67;;;4.13;;
20970;SDS011;10644;48.834;10.088;2023-06-04T11:49:00;8.83;;;5.20;;
20970;SDS011;10644;48.834;10.088;2023-06-04T11:51:29;9.40;;;4.60;;
20970;SDS011;10644;48.834;10.088;2023-06-04T11:53:55;30.23;;;7.07;;
20970;SDS011;10644;48.834;10.088;2023-06-04T11:56:21;8.90;;;5.40;;
20970;SDS011;10644;48.834;10.088;2023-06-04T11:58:54;12.57;;;5.47;;
20970;SDS011;10644;48.834;10.088;2023-06-04T12:01:20;9.43;;;5.27;;
20970;SDS011;10644;48.834;10.088;2023-06-04T12:03:45;9.30;;;5.47;;
20970;SDS011;10644;48.834;10.088;2023-06-04T12:08:54;8.43;;;5.13;;
20970;SDS011;10644;48.834;10.088;2023-06-04T12:11:25;6.97;;;5.03;;
20970;SDS011;10644;48.834;10.088;2023-06-04T12:13:58;11.27;;;5.50;;
20970;SDS011;10644;48.834;10.088;2023-06-04T12:16:25;16.87;;;6.37;;
20970;SDS011;10644;48.834;10.088;2023-06-04T12:19:03;10.70;;;5.40;;
20970;SDS011;10644;48.834;10.088;2023-06-04T12:21:35;14.73;;;5.00;;
20970;SDS011;10644;48.834;10.088;2023-06-04T12:26:36;11.33;;;5.80;;
20970;SDS011;10644;48.834;10.088;2023-06-04T12:29:09;13.13;;;5.37;;
20970;SDS011;10644;48.834;10.088;2023-06-04T12:31:44;11.00;;;5.67;;
20970;SDS011;10644;48.834;10.088;2023-06-04T12:34:13;9.60;;;5.93;;
20970;SDS011;10644;48.834;10.088;2023-06-04T12:36:39;7.07;;;4.43;;
20970;SDS011;10644;48.834;10.088;2023-06-04T12:39:05;7.07;;;4.90;;
20970;SDS011;10644;48.834;10.088;2023-06-04T12:41:32;11.57;;;6.20;;
20970;SDS011;10644;48.834;10.088;2023-06-04T12:44:01;8.90;;;4.73;;
20970;SDS011;10644;48.834;10.088;2023-06-04T12:46:29;9.53;;;5.60;;
20970;SDS011;10644;48.834;10.088;2023-06-04T12:48:54;11.40;;;5.60;;
20970;SDS011;10644;48.834;10.088;2023-06-04T12:51:22;7.37;;;5.20;;
20970;SDS011;10644;48.834;10.088;2023-06-04T12:53:50;12.93;;;5.73;;
20970;SDS011;10644;48.834;10.088;2023-06-04T12:56:16;9.20;;;5.70;;
20970;SDS011;10644;48.834;10.088;2023-06-04T12:58:41;8.10;;;5.00;;
20970;SDS011;10644;48.834;10.088;2023-06-04T13:01:09;9.93;;;5.40;;
20970;SDS011;10644;48.834;10.088;2023-06-04T13:03:39;5.50;;;4.40;;
20970;SDS011;10644;48.834;10.088;2023-06-04T13:06:05;5.80;;;4.33;;
20970;SDS011;10644;48.834;10.088;2023-06-04T13:08:31;7.97;;;5.30;;
20970;SDS011;10644;48.834;10.088;2023-06-04T13:10:56;11.30;;;5.10;;
20970;SDS011;10644;48.834;10.088;2023-06-04T13:13:22;8.30;;;4.47;;
20970;SDS011;10644;48.834;10.088;2023-06-04T13:15:47;6.90;;;5.07;;
20970;SDS011;10644;48.834;10.088;2023-06-04T13:18:17;8.13;;;5.50;;
20970;SDS011;10644;48.834;10.088;2023-06-04T13:20:43;9.37;;;4.57;;
20970;SDS011;10644;48.834;10.088;2023-06-04T13:23:08;12.07;;;5.50;;
20970;SDS011;10644;48.834;10.088;2023-06-04T13:25:34;7.50;;;5.03;;
20970;SDS011;10644;48.834;10.088;2023-06-04T13:28:00;7.97;;;4.73;;
20970;SDS011;10644;48.834;10.088;2023-06-04T13:30:26;11.10;;;6.50;;
20970;SDS011;10644;48.834;10.088;2023-06-04T13:32:52;11.80;;;5.23;;
20970;SDS011;10644;48.834;10.088;2023-06-04T13:35:17;7.93;;;4.80;;
20970;SDS011;10644;48.834;10.088;2023-06-04T13:37:43;8.17;;;5.53;;
20970;SDS011;10644;48.834;10.088;2023-06-04T13:40:08;7.33;;;5.10;;
20970;SDS011;10644;48.834;10.088;2023-06-04T13:42:34;8.33;;;4.80;;
20970;SDS011;10644;48.834;10.088;2023-06-04T13:44:59;13.10;;;5.07;;
20970;SDS011;10644;48.834;10.088;2023-06-04T13:47:25;7.20;;;4.83;;
20970;SDS011;10644;48.834;10.088;2023-06-04T13:49:50;9.50;;;5.47;;
20970;SDS011;10644;48.834;10.088;2023-06-04T13:52:16;7.33;;;4.87;;
20970;SDS011;10644;48.834;10.088;2023-06-04T13:54:42;7.00;;;4.43;;
20970;SDS011;10644;48.834;10.088;2023-06-04T13:57:07;7.50;;;4.20;;
20970;SDS011;10644;48.834;10.088;2023-06-04T13:59:36;6.37;;;5.03;;
20970;SDS011;10644;48.834;10.088;2023-06-04T14:02:07;7.67;;;5.00;;
20970;SDS011;10644;48.834;10.088;2023-06-04T14:04:32;8.90;;;5.23;;
20970;SDS011;10644;48.834;10.088;2023-06-04T14:06:58;4.83;;;4.33;;
20970;SDS011;10644;48.834;10.088;2023-06-04T14:09:23;9.80;;;5.33;;
20970;SDS011;10644;48.834;10.088;2023-06-04T14:11:51;8.10;;;4.97;;
20970;SDS011;10644;48.834;10.088;2023-06-04T14:14:17;10.50;;;5.10;;
20970;SDS011;10644;48.834;10.088;2023-06-04T14:16:44;5.33;;;4.27;;
20970;SDS011;10644;48.834;10.088;2023-06-04T14:19:09;7.70;;;4.90;;
20970;SDS011;10644;48.834;10.088;2023-06-04T14:21:35;6.77;;;4.40;;
20970;SDS011;10644;48.834;10.088;2023-06-04T14:24:01;5.77;;;4.40;;
20970;SDS011;10644;48.834;10.088;2023-06-04T14:26:27;10.83;;;5.53;;
20970;SDS011;10644;48.834;10.088;2023-06-04T14:28:53;5.83;;;4.40;;
20970;SDS011;10644;48.834;10.088;2023-06-04T14:31:21;7.00;;;4.87;;
20970;SDS011;10644;48.834;10.088;2023-06-04T14:33:46;9.30;;;4.70;;
20970;SDS011;10644;48.834;10.088;2023-06-04T14:36:12;7.47;;;4.67;;
20970;SDS011;10644;48.834;10.088;2023-06-04T14:38:37;8.87;;;4.57;;
20970;SDS011;10644;48.834;10.088;2023-06-04T14:41:03;12.30;;;5.53;;
20970;SDS011;10644;48.834;10.088;2023-06-04T14:43:28;6.17;;;4.47;;
20970;SDS011;10644;48.834;10.088;2023-06-04T14:45:54;14.57;;;5.70;;